Bookmark and Share
Track history (hours):
 

Jeppesen Maersk

Last reported at 2014-Apr-11 14:16 UTC. Time now 2014-Apr-16 16:02 UTC.
Position S 33°21' E 152°01'.

Type: Cargo ship. MMSI: 219953000.

NotesDate/timePositionNaut miles runAvg speedWind from/ knotsBaromVisibWave heightAir tempDewpointWater temp
2014-Apr-11 14:16S 33°21' E 152°01'1216.2
2014-Apr-11 13:33S 33°11' E 152°09'1615.8
2014-Apr-11 12:33S 32°59' E 152°21'1615.9
2014-Apr-11 11:33S 32°47' E 152°32'1616.2
2014-Apr-11 10:33S 32°34' E 152°44'1716.6
2014-Apr-11 09:33S 32°19' E 152°52'1816.9
2014-Apr-11 08:31S 32°02' E 152°59'21918.1
2014-Apr-10 20:24S 28°28' E 153°55'1720.2
2014-Apr-10 19:33S 28°11' E 153°55'1919.5
2014-Apr-10 18:33S 27°51' E 153°53'2019.9
2014-Apr-10 17:33S 27°31' E 153°51'2019.7
2014-Apr-10 16:33S 27°12' E 153°49'2119.1
2014-Apr-10 15:26S 26°50' E 153°47'1819.8
2014-Apr-10 14:32S 26°33' E 153°45'1919.0
2014-Apr-10 13:32S 26°14' E 153°43'2019.0
2014-Apr-10 12:28S 25°53' E 153°41'1918.9
2014-Apr-10 11:28S 25°35' E 153°40'  
2014-Apr-01 15:33N 01°13' E 103°56'8 7.9
2014-Apr-01 14:33N 01°13' E 103°48'  

Dump ship's entire track history

sailing weather and tide predictions

Jeppesen Maersk — OWTW2 — position and weather